sensor_id;sensor_type;location;lat;lon;timestamp;P1;durP1;ratioP1;P2;durP2;ratioP2
35324;SDS011;35135;47.510;19.036;2023-02-28T00:01:31;6.43;;;4.38;;
35324;SDS011;35135;47.510;19.036;2023-02-28T00:03:57;6.63;;;4.05;;
35324;SDS011;35135;47.510;19.036;2023-02-28T00:06:23;5.43;;;4.03;;
35324;SDS011;35135;47.510;19.036;2023-02-28T00:08:49;6.28;;;4.13;;
35324;SDS011;35135;47.510;19.036;2023-02-28T00:11:15;5.35;;;3.50;;
35324;SDS011;35135;47.510;19.036;2023-02-28T00:13:42;4.50;;;3.47;;
35324;SDS011;35135;47.510;19.036;2023-02-28T00:16:16;5.40;;;3.53;;
35324;SDS011;35135;47.510;19.036;2023-02-28T00:18:45;5.63;;;3.92;;
35324;SDS011;35135;47.510;19.036;2023-02-28T00:21:12;4.65;;;3.63;;
35324;SDS011;35135;47.510;19.036;2023-02-28T00:23:38;4.40;;;3.58;;
35324;SDS011;35135;47.510;19.036;2023-02-28T00:26:03;5.43;;;3.80;;
35324;SDS011;35135;47.510;19.036;2023-02-28T00:28:29;5.07;;;4.03;;
35324;SDS011;35135;47.510;19.036;2023-02-28T00:30:55;4.90;;;3.72;;
35324;SDS011;35135;47.510;19.036;2023-02-28T00:33:22;5.45;;;4.03;;
35324;SDS011;35135;47.510;19.036;2023-02-28T00:35:48;4.82;;;3.80;;
35324;SDS011;35135;47.510;19.036;2023-02-28T00:38:14;4.85;;;3.67;;
35324;SDS011;35135;47.510;19.036;2023-02-28T00:40:40;5.50;;;3.67;;
35324;SDS011;35135;47.510;19.036;2023-02-28T00:43:06;4.18;;;3.20;;
35324;SDS011;35135;47.510;19.036;2023-02-28T00:45:32;5.68;;;3.67;;
35324;SDS011;35135;47.510;19.036;2023-02-28T00:47:57;5.05;;;3.92;;
35324;SDS011;35135;47.510;19.036;2023-02-28T00:50:23;5.32;;;4.10;;
35324;SDS011;35135;47.510;19.036;2023-02-28T00:52:49;4.97;;;3.67;;
35324;SDS011;35135;47.510;19.036;2023-02-28T00:55:15;4.47;;;3.30;;
35324;SDS011;35135;47.510;19.036;2023-02-28T00:57:40;4.63;;;3.60;;
35324;SDS011;35135;47.510;19.036;2023-02-28T01:00:07;4.70;;;3.35;;
35324;SDS011;35135;47.510;19.036;2023-02-28T01:02:33;5.35;;;3.85;;
35324;SDS011;35135;47.510;19.036;2023-02-28T01:04:59;4.38;;;3.92;;
35324;SDS011;35135;47.510;19.036;2023-02-28T01:07:24;4.93;;;3.65;;
35324;SDS011;35135;47.510;19.036;2023-02-28T01:09:50;4.15;;;3.40;;
35324;SDS011;35135;47.510;19.036;2023-02-28T01:12:16;5.63;;;3.80;;
35324;SDS011;35135;47.510;19.036;2023-02-28T01:14:42;5.03;;;4.00;;
35324;SDS011;35135;47.510;19.036;2023-02-28T01:17:07;4.57;;;3.53;;
35324;SDS011;35135;47.510;19.036;2023-02-28T01:19:34;4.65;;;3.55;;
35324;SDS011;35135;47.510;19.036;2023-02-28T01:22:01;4.15;;;2.97;;
35324;SDS011;35135;47.510;19.036;2023-02-28T01:24:28;4.13;;;3.30;;
35324;SDS011;35135;47.510;19.036;2023-02-28T01:26:53;5.20;;;3.30;;
35324;SDS011;35135;47.510;19.036;2023-02-28T01:29:19;4.97;;;3.72;;
35324;SDS011;35135;47.510;19.036;2023-02-28T01:31:45;4.50;;;3.53;;
35324;SDS011;35135;47.510;19.036;2023-02-28T01:34:10;5.18;;;3.40;;
35324;SDS011;35135;47.510;19.036;2023-02-28T01:36:37;4.20;;;3.42;;
35324;SDS011;35135;47.510;19.036;2023-02-28T01:39:02;4.65;;;3.17;;
35324;SDS011;35135;47.510;19.036;2023-02-28T01:41:30;4.75;;;3.28;;
35324;SDS011;35135;47.510;19.036;2023-02-28T01:46:31;4.63;;;3.72;;
35324;SDS011;35135;47.510;19.036;2023-02-28T01:49:19;4.07;;;3.33;;
35324;SDS011;35135;47.510;19.036;2023-02-28T01:51:54;5.05;;;3.75;;
35324;SDS011;35135;47.510;19.036;2023-02-28T01:54:29;4.03;;;3.40;;
35324;SDS011;35135;47.510;19.036;2023-02-28T01:57:03;4.13;;;3.70;;
35324;SDS011;35135;47.510;19.036;2023-02-28T01:59:36;4.05;;;3.30;;
35324;SDS011;35135;47.510;19.036;2023-02-28T02:02:14;4.22;;;3.30;;
35324;SDS011;35135;47.510;19.036;2023-02-28T02:04:43;3.53;;;3.05;;
35324;SDS011;35135;47.510;19.036;2023-02-28T02:07:16;5.10;;;3.53;;
35324;SDS011;35135;47.510;19.036;2023-02-28T02:09:42;4.00;;;3.50;;
35324;SDS011;35135;47.510;19.036;2023-02-28T02:12:12;4.60;;;3.50;;
35324;SDS011;35135;47.510;19.036;2023-02-28T02:17:56;4.53;;;3.60;;
35324;SDS011;35135;47.510;19.036;2023-02-28T02:37:04;4.35;;;3.47;;
35324;SDS011;35135;47.510;19.036;2023-02-28T02:42:31;4.30;;;3.35;;
35324;SDS011;35135;47.510;19.036;2023-02-28T02:47:52;4.55;;;3.72;;
35324;SDS011;35135;47.510;19.036;2023-02-28T02:50:22;4.65;;;4.00;;
35324;SDS011;35135;47.510;19.036;2023-02-28T02:52:52;4.80;;;3.90;;
35324;SDS011;35135;47.510;19.036;2023-02-28T02:55:21;5.50;;;3.45;;
35324;SDS011;35135;47.510;19.036;2023-02-28T02:57:52;4.10;;;3.65;;
35324;SDS011;35135;47.510;19.036;2023-02-28T03:00:23;4.40;;;4.00;;
35324;SDS011;35135;47.510;19.036;2023-02-28T03:02:52;4.53;;;3.95;;
35324;SDS011;35135;47.510;19.036;2023-02-28T03:05:26;5.07;;;3.75;;
35324;SDS011;35135;47.510;19.036;2023-02-28T03:07:59;4.82;;;3.45;;
35324;SDS011;35135;47.510;19.036;2023-02-28T03:10:29;4.43;;;3.63;;
35324;SDS011;35135;47.510;19.036;2023-02-28T03:13:02;4.93;;;4.10;;
35324;SDS011;35135;47.510;19.036;2023-02-28T03:15:43;5.18;;;4.38;;
35324;SDS011;35135;47.510;19.036;2023-02-28T03:18:36;5.18;;;4.10;;
35324;SDS011;35135;47.510;19.036;2023-02-28T03:23:51;5.18;;;3.88;;
35324;SDS011;35135;47.510;19.036;2023-02-28T03:26:27;4.20;;;3.50;;
35324;SDS011;35135;47.510;19.036;2023-02-28T03:29:05;4.68;;;3.90;;
35324;SDS011;35135;47.510;19.036;2023-02-28T03:31:46;4.35;;;3.55;;
35324;SDS011;35135;47.510;19.036;2023-02-28T03:34:19;4.63;;;3.65;;
35324;SDS011;35135;47.510;19.036;2023-02-28T03:37:09;5.25;;;4.03;;
35324;SDS011;35135;47.510;19.036;2023-02-28T03:39:49;4.43;;;3.60;;
35324;SDS011;35135;47.510;19.036;2023-02-28T03:45:01;4.38;;;3.55;;
35324;SDS011;35135;47.510;19.036;2023-02-28T03:47:33;5.03;;;3.83;;
35324;SDS011;35135;47.510;19.036;2023-02-28T03:50:07;4.85;;;3.97;;
35324;SDS011;35135;47.510;19.036;2023-02-28T03:52:42;4.68;;;3.78;;
35324;SDS011;35135;47.510;19.036;2023-02-28T03:55:19;4.60;;;4.13;;
35324;SDS011;35135;47.510;19.036;2023-02-28T03:57:57;4.60;;;3.95;;
35324;SDS011;35135;47.510;19.036;2023-02-28T04:02:59;4.30;;;3.75;;
35324;SDS011;35135;47.510;19.036;2023-02-28T04:05:25;4.47;;;3.78;;
35324;SDS011;35135;47.510;19.036;2023-02-28T04:07:52;4.60;;;4.10;;
35324;SDS011;35135;47.510;19.036;2023-02-28T04:10:18;4.90;;;3.95;;
35324;SDS011;35135;47.510;19.036;2023-02-28T04:12:44;5.28;;;3.60;;
35324;SDS011;35135;47.510;19.036;2023-02-28T04:15:10;5.45;;;4.05;;
35324;SDS011;35135;47.510;19.036;2023-02-28T04:17:36;4.53;;;3.90;;
35324;SDS011;35135;47.510;19.036;2023-02-28T04:20:02;4.35;;;3.92;;
35324;SDS011;35135;47.510;19.036;2023-02-28T04:22:28;4.68;;;4.13;;
35324;SDS011;35135;47.510;19.036;2023-02-28T04:24:54;10.57;;;4.10;;
35324;SDS011;35135;47.510;19.036;2023-02-28T04:27:20;4.60;;;3.97;;
35324;SDS011;35135;47.510;19.036;2023-02-28T04:29:46;4.68;;;4.18;;
35324;SDS011;35135;47.510;19.036;2023-02-28T04:32:12;4.43;;;3.78;;
35324;SDS011;35135;47.510;19.036;2023-02-28T04:34:38;4.13;;;3.72;;
35324;SDS011;35135;47.510;19.036;2023-02-28T04:37:04;5.22;;;3.80;;
35324;SDS011;35135;47.510;19.036;2023-02-28T04:39:34;4.68;;;4.15;;
35324;SDS011;35135;47.510;19.036;2023-02-28T04:42:01;4.53;;;3.75;;
35324;SDS011;35135;47.510;19.036;2023-02-28T04:44:28;4.78;;;3.88;;
35324;SDS011;35135;47.510;19.036;2023-02-28T04:46:53;4.25;;;3.53;;
35324;SDS011;35135;47.510;19.036;2023-02-28T04:49:19;4.47;;;3.80;;
35324;SDS011;35135;47.510;19.036;2023-02-28T04:51:44;4.32;;;3.88;;
35324;SDS011;35135;47.510;19.036;2023-02-28T04:54:10;5.03;;;4.05;;
35324;SDS011;35135;47.510;19.036;2023-02-28T04:56:36;3.90;;;3.50;;
35324;SDS011;35135;47.510;19.036;2023-02-28T04:59:02;4.43;;;3.78;;
35324;SDS011;35135;47.510;19.036;2023-02-28T05:01:30;4.38;;;3.83;;
35324;SDS011;35135;47.510;19.036;2023-02-28T05:03:58;4.05;;;3.28;;
35324;SDS011;35135;47.510;19.036;2023-02-28T05:06:26;4.00;;;3.53;;
35324;SDS011;35135;47.510;19.036;2023-02-28T05:08:53;4.40;;;3.67;;
35324;SDS011;35135;47.510;19.036;2023-02-28T05:11:32;4.93;;;3.83;;
35324;SDS011;35135;47.510;19.036;2023-02-28T05:14:08;4.72;;;3.63;;
35324;SDS011;35135;47.510;19.036;2023-02-28T05:16:36;4.50;;;3.83;;
35324;SDS011;35135;47.510;19.036;2023-02-28T05:19:02;4.32;;;3.53;;
35324;SDS011;35135;47.510;19.036;2023-02-28T05:21:35;3.83;;;3.42;;
35324;SDS011;35135;47.510;19.036;2023-02-28T05:24:09;3.95;;;3.42;;
35324;SDS011;35135;47.510;19.036;2023-02-28T05:26:37;5.80;;;4.05;;
35324;SDS011;35135;47.510;19.036;2023-02-28T05:29:05;4.28;;;3.72;;
35324;SDS011;35135;47.510;19.036;2023-02-28T05:31:31;4.93;;;3.97;;
35324;SDS011;35135;47.510;19.036;2023-02-28T05:33:57;4.93;;;3.67;;
35324;SDS011;35135;47.510;19.036;2023-02-28T05:36:23;6.50;;;4.10;;
35324;SDS011;35135;47.510;19.036;2023-02-28T05:38:49;3.63;;;3.25;;
35324;SDS011;35135;47.510;19.036;2023-02-28T05:41:16;5.63;;;4.00;;
35324;SDS011;35135;47.510;19.036;2023-02-28T05:43:44;4.78;;;3.60;;
35324;SDS011;35135;47.510;19.036;2023-02-28T05:46:11;3.72;;;3.33;;
35324;SDS011;35135;47.510;19.036;2023-02-28T05:48:38;4.47;;;3.85;;
35324;SDS011;35135;47.510;19.036;2023-02-28T05:51:05;4.15;;;3.33;;
35324;SDS011;35135;47.510;19.036;2023-02-28T05:53:32;4.72;;;3.30;;
35324;SDS011;35135;47.510;19.036;2023-02-28T05:55:58;4.20;;;3.80;;
35324;SDS011;35135;47.510;19.036;2023-02-28T05:58:24;4.00;;;3.50;;
35324;SDS011;35135;47.510;19.036;2023-02-28T06:00:54;4.53;;;3.78;;
35324;SDS011;35135;47.510;19.036;2023-02-28T06:03:19;3.40;;;3.10;;
35324;SDS011;35135;47.510;19.036;2023-02-28T06:05:45;4.25;;;3.35;;
35324;SDS011;35135;47.510;19.036;2023-02-28T06:08:11;3.78;;;3.30;;
35324;SDS011;35135;47.510;19.036;2023-02-28T06:10:36;4.80;;;3.33;;
35324;SDS011;35135;47.510;19.036;2023-02-28T06:13:03;5.00;;;3.33;;
35324;SDS011;35135;47.510;19.036;2023-02-28T06:15:29;6.78;;;3.53;;
35324;SDS011;35135;47.510;19.036;2023-02-28T06:17:55;7.05;;;4.43;;
35324;SDS011;35135;47.510;19.036;2023-02-28T06:20:21;4.57;;;3.53;;
35324;SDS011;35135;47.510;19.036;2023-02-28T06:22:47;7.57;;;4.07;;
35324;SDS011;35135;47.510;19.036;2023-02-28T06:25:15;9.02;;;4.38;;
35324;SDS011;35135;47.510;19.036;2023-02-28T06:27:41;6.15;;;3.70;;
35324;SDS011;35135;47.510;19.036;2023-02-28T06:30:08;8.25;;;3.95;;
35324;SDS011;35135;47.510;19.036;2023-02-28T06:32:35;6.55;;;4.18;;
35324;SDS011;35135;47.510;19.036;2023-02-28T06:35:01;8.23;;;4.47;;
35324;SDS011;35135;47.510;19.036;2023-02-28T06:37:28;6.25;;;3.95;;
35324;SDS011;35135;47.510;19.036;2023-02-28T06:39:55;8.93;;;4.15;;
35324;SDS011;35135;47.510;19.036;2023-02-28T06:42:21;5.22;;;3.95;;
35324;SDS011;35135;47.510;19.036;2023-02-28T06:44:50;9.88;;;4.30;;
35324;SDS011;35135;47.510;19.036;2023-02-28T06:47:16;10.00;;;4.50;;
35324;SDS011;35135;47.510;19.036;2023-02-28T06:49:42;8.88;;;4.20;;
35324;SDS011;35135;47.510;19.036;2023-02-28T06:52:10;8.93;;;4.50;;
35324;SDS011;35135;47.510;19.036;2023-02-28T06:54:36;6.65;;;4.43;;
35324;SDS011;35135;47.510;19.036;2023-02-28T06:57:02;8.73;;;3.90;;
35324;SDS011;35135;47.510;19.036;2023-02-28T06:59:28;7.50;;;3.90;;
35324;SDS011;35135;47.510;19.036;2023-02-28T07:01:54;6.95;;;4.10;;
35324;SDS011;35135;47.510;19.036;2023-02-28T07:04:20;8.65;;;3.63;;
35324;SDS011;35135;47.510;19.036;2023-02-28T07:06:46;8.95;;;4.00;;
35324;SDS011;35135;47.510;19.036;2023-02-28T07:09:11;8.38;;;3.95;;
35324;SDS011;35135;47.510;19.036;2023-02-28T07:11:38;6.28;;;3.55;;
35324;SDS011;35135;47.510;19.036;2023-02-28T07:14:05;6.55;;;3.80;;
35324;SDS011;35135;47.510;19.036;2023-02-28T07:16:32;5.90;;;3.50;;
35324;SDS011;35135;47.510;19.036;2023-02-28T07:18:57;10.65;;;4.15;;
35324;SDS011;35135;47.510;19.036;2023-02-28T07:21:23;7.05;;;4.00;;
35324;SDS011;35135;47.510;19.036;2023-02-28T07:23:49;7.53;;;4.00;;
35324;SDS011;35135;47.510;19.036;2023-02-28T07:26:15;5.13;;;3.72;;
35324;SDS011;35135;47.510;19.036;2023-02-28T07:28:43;9.02;;;3.75;;
35324;SDS011;35135;47.510;19.036;2023-02-28T07:31:11;7.13;;;3.90;;
35324;SDS011;35135;47.510;19.036;2023-02-28T07:33:39;7.70;;;3.95;;
35324;SDS011;35135;47.510;19.036;2023-02-28T07:36:08;5.82;;;3.80;;
35324;SDS011;35135;47.510;19.036;2023-02-28T07:38:41;7.65;;;3.72;;
35324;SDS011;35135;47.510;19.036;2023-02-28T07:41:08;6.63;;;3.83;;
35324;SDS011;35135;47.510;19.036;2023-02-28T07:43:34;7.60;;;3.55;;
35324;SDS011;35135;47.510;19.036;2023-02-28T07:46:04;6.68;;;3.20;;
35324;SDS011;35135;47.510;19.036;2023-02-28T07:48:30;5.40;;;3.50;;
35324;SDS011;35135;47.510;19.036;2023-02-28T07:50:56;6.65;;;4.32;;
35324;SDS011;35135;47.510;19.036;2023-02-28T07:53:23;6.85;;;4.10;;
35324;SDS011;35135;47.510;19.036;2023-02-28T07:55:48;6.38;;;4.15;;
35324;SDS011;35135;47.510;19.036;2023-02-28T07:58:14;7.28;;;3.95;;
35324;SDS011;35135;47.510;19.036;2023-02-28T08:00:40;7.65;;;3.65;;
35324;SDS011;35135;47.510;19.036;2023-02-28T08:03:05;8.07;;;3.65;;
35324;SDS011;35135;47.510;19.036;2023-02-28T08:05:31;7.45;;;3.75;;
35324;SDS011;35135;47.510;19.036;2023-02-28T08:07:57;5.30;;;3.65;;
35324;SDS011;35135;47.510;19.036;2023-02-28T08:10:22;5.43;;;3.58;;
35324;SDS011;35135;47.510;19.036;2023-02-28T08:12:49;4.30;;;3.20;;
35324;SDS011;35135;47.510;19.036;2023-02-28T08:15:14;5.72;;;3.63;;
35324;SDS011;35135;47.510;19.036;2023-02-28T08:17:40;5.00;;;4.30;;
35324;SDS011;35135;47.510;19.036;2023-02-28T08:20:06;4.75;;;3.42;;
35324;SDS011;35135;47.510;19.036;2023-02-28T08:22:32;5.22;;;3.50;;
35324;SDS011;35135;47.510;19.036;2023-02-28T08:24:58;6.53;;;3.83;;
35324;SDS011;35135;47.510;19.036;2023-02-28T08:27:23;5.38;;;3.75;;
35324;SDS011;35135;47.510;19.036;2023-02-28T08:29:49;4.93;;;3.55;;
35324;SDS011;35135;47.510;19.036;2023-02-28T08:32:15;5.03;;;3.95;;
35324;SDS011;35135;47.510;19.036;2023-02-28T08:34:40;4.57;;;3.67;;
35324;SDS011;35135;47.510;19.036;2023-02-28T08:37:06;4.50;;;3.42;;
35324;SDS011;35135;47.510;19.036;2023-02-28T08:39:35;7.35;;;3.67;;
35324;SDS011;35135;47.510;19.036;2023-02-28T08:42:01;4.80;;;3.40;;
35324;SDS011;35135;47.510;19.036;2023-02-28T08:44:28;4.53;;;2.72;;
35324;SDS011;35135;47.510;19.036;2023-02-28T08:46:53;5.40;;;3.60;;
35324;SDS011;35135;47.510;19.036;2023-02-28T08:49:19;3.92;;;2.90;;
35324;SDS011;35135;47.510;19.036;2023-02-28T08:51:45;4.93;;;3.40;;
35324;SDS011;35135;47.510;19.036;2023-02-28T08:54:11;5.97;;;3.53;;
35324;SDS011;35135;47.510;19.036;2023-02-28T08:56:44;5.00;;;3.53;;
35324;SDS011;35135;47.510;19.036;2023-02-28T08:59:11;4.97;;;3.38;;
35324;SDS011;35135;47.510;19.036;2023-02-28T09:01:37;4.82;;;3.45;;
35324;SDS011;35135;47.510;19.036;2023-02-28T09:04:03;5.45;;;3.17;;
35324;SDS011;35135;47.510;19.036;2023-02-28T09:06:29;5.22;;;3.60;;
35324;SDS011;35135;47.510;19.036;2023-02-28T09:08:57;5.22;;;3.50;;
35324;SDS011;35135;47.510;19.036;2023-02-28T09:11:29;3.80;;;3.03;;
35324;SDS011;35135;47.510;19.036;2023-02-28T09:13:55;4.13;;;2.83;;
35324;SDS011;35135;47.510;19.036;2023-02-28T09:16:21;5.25;;;3.22;;
35324;SDS011;35135;47.510;19.036;2023-02-28T09:18:47;4.72;;;3.35;;
35324;SDS011;35135;47.510;19.036;2023-02-28T09:21:14;4.45;;;3.60;;
35324;SDS011;35135;47.510;19.036;2023-02-28T09:23:42;5.70;;;3.40;;
35324;SDS011;35135;47.510;19.036;2023-02-28T09:26:14;3.70;;;3.03;;
35324;SDS011;35135;47.510;19.036;2023-02-28T09:28:41;4.30;;;3.15;;
35324;SDS011;35135;47.510;19.036;2023-02-28T09:31:10;4.65;;;3.70;;
35324;SDS011;35135;47.510;19.036;2023-02-28T09:33:45;5.38;;;3.80;;
35324;SDS011;35135;47.510;19.036;2023-02-28T09:36:15;4.72;;;3.15;;
35324;SDS011;35135;47.510;19.036;2023-02-28T09:38:40;4.18;;;3.03;;
35324;SDS011;35135;47.510;19.036;2023-02-28T09:41:13;4.50;;;2.88;;
35324;SDS011;35135;47.510;19.036;2023-02-28T09:43:44;3.40;;;3.00;;
35324;SDS011;35135;47.510;19.036;2023-02-28T09:48:56;3.95;;;3.15;;
35324;SDS011;35135;47.510;19.036;2023-02-28T09:54:18;5.03;;;3.10;;
35324;SDS011;35135;47.510;19.036;2023-02-28T09:56:48;6.85;;;2.95;;
35324;SDS011;35135;47.510;19.036;2023-02-28T10:01:54;3.42;;;3.03;;
35324;SDS011;35135;47.510;19.036;2023-02-28T10:10:20;3.85;;;3.10;;
35324;SDS011;35135;47.510;19.036;2023-02-28T10:12:49;3.85;;;3.08;;
35324;SDS011;35135;47.510;19.036;2023-02-28T10:15:19;3.75;;;2.78;;
35324;SDS011;35135;47.510;19.036;2023-02-28T10:17:52;3.20;;;2.83;;
35324;SDS011;35135;47.510;19.036;2023-02-28T10:20:22;3.80;;;2.83;;
35324;SDS011;35135;47.510;19.036;2023-02-28T10:23:17;4.45;;;3.00;;
35324;SDS011;35135;47.510;19.036;2023-02-28T10:25:50;4.07;;;3.08;;
35324;SDS011;35135;47.510;19.036;2023-02-28T10:28:23;4.30;;;3.28;;
35324;SDS011;35135;47.510;19.036;2023-02-28T10:30:51;3.50;;;2.90;;
35324;SDS011;35135;47.510;19.036;2023-02-28T10:33:20;3.75;;;3.03;;
35324;SDS011;35135;47.510;19.036;2023-02-28T10:35:53;5.22;;;3.28;;
35324;SDS011;35135;47.510;19.036;2023-02-28T10:38:31;3.05;;;2.58;;
35324;SDS011;35135;47.510;19.036;2023-02-28T10:41:09;4.10;;;3.03;;
35324;SDS011;35135;47.510;19.036;2023-02-28T10:43:38;4.07;;;2.80;;
35324;SDS011;35135;47.510;19.036;2023-02-28T10:51:08;3.47;;;2.88;;
35324;SDS011;35135;47.510;19.036;2023-02-28T10:53:38;3.72;;;2.75;;
35324;SDS011;35135;47.510;19.036;2023-02-28T11:01:24;6.63;;;3.28;;
35324;SDS011;35135;47.510;19.036;2023-02-28T11:07:01;6.40;;;2.72;;
35324;SDS011;35135;47.510;19.036;2023-02-28T11:09:33;6.80;;;3.45;;
35324;SDS011;35135;47.510;19.036;2023-02-28T11:12:02;8.85;;;4.10;;
35324;SDS011;35135;47.510;19.036;2023-02-28T11:14:32;7.28;;;3.35;;
35324;SDS011;35135;47.510;19.036;2023-02-28T11:17:14;6.63;;;3.50;;
35324;SDS011;35135;47.510;19.036;2023-02-28T11:19:50;7.82;;;3.13;;
35324;SDS011;35135;47.510;19.036;2023-02-28T11:22:19;6.53;;;3.35;;
35324;SDS011;35135;47.510;19.036;2023-02-28T11:24:49;8.02;;;3.33;;
35324;SDS011;35135;47.510;19.036;2023-02-28T11:27:25;6.63;;;3.05;;
35324;SDS011;35135;47.510;19.036;2023-02-28T11:29:51;5.80;;;3.17;;
35324;SDS011;35135;47.510;19.036;2023-02-28T11:32:20;5.45;;;3.33;;
35324;SDS011;35135;47.510;19.036;2023-02-28T11:34:59;4.70;;;2.78;;
35324;SDS011;35135;47.510;19.036;2023-02-28T11:37:39;5.13;;;3.25;;
35324;SDS011;35135;47.510;19.036;2023-02-28T11:40:18;6.70;;;3.05;;
35324;SDS011;35135;47.510;19.036;2023-02-28T11:43:01;5.40;;;3.08;;
35324;SDS011;35135;47.510;19.036;2023-02-28T11:45:44;6.07;;;3.42;;
35324;SDS011;35135;47.510;19.036;2023-02-28T11:53:46;6.75;;;3.38;;
35324;SDS011;35135;47.510;19.036;2023-02-28T11:56:46;6.05;;;3.17;;
35324;SDS011;35135;47.510;19.036;2023-02-28T11:59:33;5.97;;;3.33;;
35324;SDS011;35135;47.510;19.036;2023-02-28T12:02:29;5.93;;;3.05;;
35324;SDS011;35135;47.510;19.036;2023-02-28T12:19:38;4.85;;;2.92;;
35324;SDS011;35135;47.510;19.036;2023-02-28T12:34:20;4.90;;;2.95;;
35324;SDS011;35135;47.510;19.036;2023-02-28T12:37:13;4.35;;;2.70;;
35324;SDS011;35135;47.510;19.036;2023-02-28T12:39:46;6.60;;;3.17;;
35324;SDS011;35135;47.510;19.036;2023-02-28T12:42:26;4.32;;;2.90;;
35324;SDS011;35135;47.510;19.036;2023-02-28T12:47:52;4.13;;;2.47;;
35324;SDS011;35135;47.510;19.036;2023-02-28T12:50:25;5.25;;;2.67;;
35324;SDS011;35135;47.510;19.036;2023-02-28T12:58:39;4.10;;;2.45;;
35324;SDS011;35135;47.510;19.036;2023-02-28T13:07:12;6.45;;;2.90;;
35324;SDS011;35135;47.510;19.036;2023-02-28T13:09:53;5.07;;;2.80;;
35324;SDS011;35135;47.510;19.036;2023-02-28T13:12:21;4.88;;;2.47;;
35324;SDS011;35135;47.510;19.036;2023-02-28T13:14:48;3.95;;;2.78;;
35324;SDS011;35135;47.510;19.036;2023-02-28T13:17:19;4.07;;;2.97;;
35324;SDS011;35135;47.510;19.036;2023-02-28T13:19:55;5.10;;;2.55;;
35324;SDS011;35135;47.510;19.036;2023-02-28T13:22:42;5.72;;;2.85;;
35324;SDS011;35135;47.510;19.036;2023-02-28T13:27:48;3.50;;;2.83;;
35324;SDS011;35135;47.510;19.036;2023-02-28T13:38:42;3.78;;;2.90;;
35324;SDS011;35135;47.510;19.036;2023-02-28T13:43:59;4.72;;;2.70;;
35324;SDS011;35135;47.510;19.036;2023-02-28T13:46:34;6.32;;;3.08;;
35324;SDS011;35135;47.510;19.036;2023-02-28T13:54:33;4.82;;;2.47;;
35324;SDS011;35135;47.510;19.036;2023-02-28T14:05:30;4.70;;;2.90;;
35324;SDS011;35135;47.510;19.036;2023-02-28T14:07:59;3.00;;;2.45;;
35324;SDS011;35135;47.510;19.036;2023-02-28T14:16:01;4.78;;;2.40;;
35324;SDS011;35135;47.510;19.036;2023-02-28T14:18:31;4.40;;;2.90;;
35324;SDS011;35135;47.510;19.036;2023-02-28T14:21:09;9.77;;;3.70;;
35324;SDS011;35135;47.510;19.036;2023-02-28T14:28:55;5.78;;;2.38;;
35324;SDS011;35135;47.510;19.036;2023-02-28T14:31:36;4.43;;;2.83;;
35324;SDS011;35135;47.510;19.036;2023-02-28T14:36:58;3.67;;;2.43;;
35324;SDS011;35135;47.510;19.036;2023-02-28T14:39:26;4.28;;;2.63;;
35324;SDS011;35135;47.510;19.036;2023-02-28T14:41:56;3.53;;;2.67;;
35324;SDS011;35135;47.510;19.036;2023-02-28T14:44:28;4.13;;;2.53;;
35324;SDS011;35135;47.510;19.036;2023-02-28T14:46:55;3.13;;;2.53;;
35324;SDS011;35135;47.510;19.036;2023-02-28T14:49:34;4.35;;;2.70;;
35324;SDS011;35135;47.510;19.036;2023-02-28T14:54:31;3.60;;;2.60;;
35324;SDS011;35135;47.510;19.036;2023-02-28T14:56:57;4.28;;;3.13;;
35324;SDS011;35135;47.510;19.036;2023-02-28T15:01:51;3.95;;;2.60;;
35324;SDS011;35135;47.510;19.036;2023-02-28T15:04:26;5.15;;;2.75;;
35324;SDS011;35135;47.510;19.036;2023-02-28T15:07:13;4.78;;;2.67;;
35324;SDS011;35135;47.510;19.036;2023-02-28T15:09:39;5.18;;;2.72;;
35324;SDS011;35135;47.510;19.036;2023-02-28T15:12:05;2.97;;;2.33;;
35324;SDS011;35135;47.510;19.036;2023-02-28T15:14:32;3.67;;;2.63;;
35324;SDS011;35135;47.510;19.036;2023-02-28T15:17:05;4.00;;;2.80;;
35324;SDS011;35135;47.510;19.036;2023-02-28T15:19:34;3.67;;;2.70;;
35324;SDS011;35135;47.510;19.036;2023-02-28T15:22:06;5.60;;;2.60;;
35324;SDS011;35135;47.510;19.036;2023-02-28T15:24:38;4.57;;;2.72;;
35324;SDS011;35135;47.510;19.036;2023-02-28T15:29:48;3.00;;;2.25;;
35324;SDS011;35135;47.510;19.036;2023-02-28T15:34:55;3.25;;;2.40;;
35324;SDS011;35135;47.510;19.036;2023-02-28T15:39:55;4.35;;;2.97;;
35324;SDS011;35135;47.510;19.036;2023-02-28T15:42:27;6.53;;;2.88;;
35324;SDS011;35135;47.510;19.036;2023-02-28T15:44:54;4.10;;;2.70;;
35324;SDS011;35135;47.510;19.036;2023-02-28T15:47:23;3.75;;;2.80;;
35324;SDS011;35135;47.510;19.036;2023-02-28T15:49:52;4.90;;;2.67;;
35324;SDS011;35135;47.510;19.036;2023-02-28T15:57:34;3.72;;;2.78;;
35324;SDS011;35135;47.510;19.036;2023-02-28T16:00:01;3.92;;;2.80;;
35324;SDS011;35135;47.510;19.036;2023-02-28T16:07:35;4.13;;;2.95;;
35324;SDS011;35135;47.510;19.036;2023-02-28T16:10:03;4.75;;;2.70;;
35324;SDS011;35135;47.510;19.036;2023-02-28T16:12:31;3.45;;;2.85;;
35324;SDS011;35135;47.510;19.036;2023-02-28T16:14:59;6.15;;;3.00;;
35324;SDS011;35135;47.510;19.036;2023-02-28T16:17:35;6.70;;;2.50;;
35324;SDS011;35135;47.510;19.036;2023-02-28T16:20:16;6.60;;;2.60;;
35324;SDS011;35135;47.510;19.036;2023-02-28T16:22:42;4.03;;;2.65;;
35324;SDS011;35135;47.510;19.036;2023-02-28T16:25:14;3.83;;;2.67;;
35324;SDS011;35135;47.510;19.036;2023-02-28T16:27:42;4.82;;;3.00;;
35324;SDS011;35135;47.510;19.036;2023-02-28T16:30:22;6.10;;;3.30;;
35324;SDS011;35135;47.510;19.036;2023-02-28T16:32:49;10.13;;;3.35;;
35324;SDS011;35135;47.510;19.036;2023-02-28T16:35:16;11.10;;;3.78;;
35324;SDS011;35135;47.510;19.036;2023-02-28T16:37:43;7.68;;;3.58;;
35324;SDS011;35135;47.510;19.036;2023-02-28T16:40:19;8.93;;;3.50;;
35324;SDS011;35135;47.510;19.036;2023-02-28T16:42:48;8.85;;;3.97;;
35324;SDS011;35135;47.510;19.036;2023-02-28T16:45:25;11.15;;;3.42;;
35324;SDS011;35135;47.510;19.036;2023-02-28T16:47:53;8.48;;;3.78;;
35324;SDS011;35135;47.510;19.036;2023-02-28T16:50:20;7.45;;;4.05;;
35324;SDS011;35135;47.510;19.036;2023-02-28T16:52:47;11.70;;;4.20;;
35324;SDS011;35135;47.510;19.036;2023-02-28T16:55:14;10.07;;;3.58;;
35324;SDS011;35135;47.510;19.036;2023-02-28T16:57:41;7.00;;;3.88;;
35324;SDS011;35135;47.510;19.036;2023-02-28T17:00:08;8.02;;;3.67;;
35324;SDS011;35135;47.510;19.036;2023-02-28T17:02:37;12.70;;;4.75;;
35324;SDS011;35135;47.510;19.036;2023-02-28T17:05:04;11.20;;;4.47;;
35324;SDS011;35135;47.510;19.036;2023-02-28T17:07:30;10.90;;;5.32;;
35324;SDS011;35135;47.510;19.036;2023-02-28T17:09:55;12.32;;;5.50;;
35324;SDS011;35135;47.510;19.036;2023-02-28T17:12:21;13.45;;;5.80;;
35324;SDS011;35135;47.510;19.036;2023-02-28T17:14:47;14.52;;;5.85;;
35324;SDS011;35135;47.510;19.036;2023-02-28T17:17:15;17.05;;;6.93;;
35324;SDS011;35135;47.510;19.036;2023-02-28T17:19:43;13.23;;;6.90;;
35324;SDS011;35135;47.510;19.036;2023-02-28T17:22:09;15.73;;;6.90;;
35324;SDS011;35135;47.510;19.036;2023-02-28T17:24:35;9.18;;;6.47;;
35324;SDS011;35135;47.510;19.036;2023-02-28T17:27:01;15.82;;;6.47;;
35324;SDS011;35135;47.510;19.036;2023-02-28T17:29:27;13.30;;;6.15;;
35324;SDS011;35135;47.510;19.036;2023-02-28T17:31:52;9.93;;;6.63;;
35324;SDS011;35135;47.510;19.036;2023-02-28T17:34:18;15.10;;;6.68;;
35324;SDS011;35135;47.510;19.036;2023-02-28T17:36:48;11.05;;;7.05;;
35324;SDS011;35135;47.510;19.036;2023-02-28T17:39:16;15.80;;;6.55;;
35324;SDS011;35135;47.510;19.036;2023-02-28T17:41:49;14.20;;;6.80;;